createdAt,value
2023-05-15T00:00:38.936Z,77.20
2023-05-15T00:03:36.629Z,77.10
2023-05-15T00:06:31.371Z,77.20
2023-05-15T00:09:25.750Z,76.70
2023-05-15T00:12:21.355Z,75.30
2023-05-15T00:15:15.781Z,74.80
2023-05-15T00:18:10.043Z,74.80
2023-05-15T00:21:04.584Z,74.30
2023-05-15T00:23:59.737Z,74.20
2023-05-15T00:26:54.068Z,72.90
2023-05-15T00:29:48.434Z,72.50
2023-05-15T00:32:42.767Z,73.40
2023-05-15T00:35:37.157Z,72.00
2023-05-15T00:38:32.370Z,71.10
2023-05-15T00:41:28.172Z,70.90
2023-05-15T00:44:23.190Z,70.40
2023-05-15T00:47:19.096Z,68.00
2023-05-15T00:50:14.105Z,67.40
2023-05-15T00:53:08.926Z,65.50
2023-05-15T00:56:04.658Z,65.30
2023-05-15T00:59:01.301Z,64.40
2023-05-15T01:01:55.755Z,65.00
2023-05-15T01:04:50.508Z,64.70
2023-05-15T01:08:18.526Z,63.50
2023-05-15T01:11:15.070Z,62.50
2023-05-15T01:14:10.429Z,60.80
2023-05-15T01:17:04.763Z,60.80
2023-05-15T01:20:00.938Z,61.00
2023-05-15T01:23:30.118Z,59.60
2023-05-15T01:26:52.398Z,58.40
2023-05-15T01:30:06.367Z,57.80
2023-05-15T01:33:00.582Z,58.00
2023-05-15T01:36:10.294Z,57.20
2023-05-15T01:39:05.660Z,57.00
2023-05-15T01:42:17.226Z,55.30
2023-05-15T01:45:13.612Z,54.90
2023-05-15T01:48:10.388Z,54.90
2023-05-15T01:51:08.209Z,54.70
2023-05-15T01:54:03.988Z,54.20
2023-05-15T01:56:59.320Z,53.80
2023-05-15T01:59:54.701Z,53.10
2023-05-15T02:02:49.990Z,53.00
2023-05-15T02:05:44.546Z,52.80
2023-05-15T02:08:39.620Z,51.70
2023-05-15T02:11:34.117Z,52.60
2023-05-15T02:14:33.279Z,52.40
2023-05-15T02:17:29.400Z,51.30
2023-05-15T02:20:25.185Z,51.40
2023-05-15T02:23:21.811Z,51.10
2023-05-15T02:26:33.262Z,51.20
2023-05-15T02:29:33.851Z,50.70
2023-05-15T02:32:32.422Z,50.90
2023-05-15T02:35:39.313Z,49.50
2023-05-15T02:38:48.404Z,50.80
2023-05-15T02:41:43.060Z,51.00
2023-05-15T02:44:38.974Z,50.30
2023-05-15T02:47:34.490Z,50.00
2023-05-15T02:50:29.215Z,49.60
2023-05-15T02:53:23.596Z,49.70
2023-05-15T02:56:17.969Z,48.00
2023-05-15T02:59:12.345Z,49.00
2023-05-15T03:02:06.835Z,48.40
2023-05-15T03:05:01.130Z,48.60
2023-05-15T03:07:55.362Z,47.60
2023-05-15T03:10:49.550Z,46.20
2023-05-15T03:13:43.822Z,46.90
2023-05-15T03:16:41.432Z,46.80
2023-05-15T03:19:35.630Z,46.40
2023-05-15T03:22:29.761Z,46.60
2023-05-15T03:25:24.737Z,45.20
2023-05-15T03:28:19.324Z,45.50
2023-05-15T03:31:15.431Z,45.30
2023-05-15T03:34:09.725Z,43.40
2023-05-15T03:37:03.948Z,44.10
2023-05-15T03:39:58.298Z,42.90
2023-05-15T03:42:54.747Z,43.40
2023-05-15T03:45:48.982Z,43.60
2023-05-15T03:48:43.254Z,44.40
2023-05-15T03:51:37.661Z,43.50
2023-05-15T03:54:32.045Z,43.40
2023-05-15T03:57:26.203Z,42.80
2023-05-15T04:00:21.018Z,43.20
2023-05-15T04:03:15.401Z,44.00
2023-05-15T04:06:09.617Z,43.60
2023-05-15T04:09:03.878Z,43.30
2023-05-15T04:11:58.091Z,44.10
2023-05-15T04:14:52.299Z,44.90
2023-05-15T04:17:48.372Z,44.90
2023-05-15T04:20:42.587Z,45.10
2023-05-15T04:23:37.025Z,45.30
2023-05-15T04:26:31.534Z,44.80
2023-05-15T04:29:25.764Z,44.60
2023-05-15T04:32:20.197Z,45.30
2023-05-15T04:35:15.578Z,45.90
2023-05-15T04:38:09.915Z,46.20
2023-05-15T04:41:04.974Z,46.20
2023-05-15T04:43:59.498Z,45.70
2023-05-15T04:46:53.642Z,46.40
2023-05-15T04:49:49.407Z,47.20
2023-05-15T04:52:44.478Z,48.20
2023-05-15T04:55:38.742Z,48.30
2023-05-15T04:58:32.985Z,48.80
2023-05-15T05:01:27.580Z,48.20
2023-05-15T05:04:22.067Z,48.50
2023-05-15T05:07:16.270Z,47.30
2023-05-15T05:10:11.133Z,48.00
2023-05-15T05:13:05.541Z,48.00
2023-05-15T05:15:59.866Z,47.80
2023-05-15T05:18:54.091Z,48.00
2023-05-15T05:21:48.508Z,47.90
2023-05-15T05:24:42.791Z,47.90
2023-05-15T05:27:37.043Z,48.30
2023-05-15T05:30:31.586Z,48.60
2023-05-15T05:33:25.942Z,47.90
2023-05-15T05:36:20.317Z,48.10
2023-05-15T05:39:14.513Z,48.20
2023-05-15T05:42:08.747Z,48.90
2023-05-15T05:45:03.000Z,49.20
2023-05-15T05:48:00.458Z,49.30
2023-05-15T05:50:55.167Z,49.00
2023-05-15T05:53:49.335Z,48.60
2023-05-15T05:56:44.603Z,48.40
2023-05-15T05:59:40.278Z,47.30
2023-05-15T06:02:35.316Z,47.90
2023-05-15T06:05:30.202Z,47.90
2023-05-15T06:08:24.615Z,47.90
2023-05-15T06:11:18.815Z,47.40
2023-05-15T06:14:13.055Z,47.70
2023-05-15T06:17:07.604Z,47.50
2023-05-15T06:20:02.000Z,47.50
2023-05-15T06:22:56.370Z,47.40
2023-05-15T06:25:50.609Z,46.40
2023-05-15T06:28:44.801Z,46.10
2023-05-15T06:31:39.089Z,46.20
2023-05-15T06:34:33.848Z,45.70
2023-05-15T06:37:28.580Z,45.70
2023-05-15T06:40:23.751Z,45.30
2023-05-15T06:43:20.607Z,45.40
2023-05-15T06:46:17.410Z,45.30
2023-05-15T06:49:11.722Z,45.30
2023-05-15T06:52:06.841Z,45.60
2023-05-15T06:55:01.267Z,46.00
2023-05-15T06:57:55.555Z,46.10
2023-05-15T07:00:49.770Z,46.00
2023-05-15T07:03:44.318Z,46.30
2023-05-15T07:06:39.236Z,46.50
2023-05-15T07:09:33.861Z,47.10
2023-05-15T07:12:28.334Z,47.00
2023-05-15T07:15:22.600Z,46.80
2023-05-15T07:18:16.844Z,46.80
2023-05-15T07:21:11.121Z,46.70
2023-05-15T07:24:05.408Z,46.70
2023-05-15T07:27:00.503Z,46.70
2023-05-15T07:29:55.508Z,46.60
2023-05-15T07:32:49.733Z,46.40
2023-05-15T07:35:43.958Z,46.30
2023-05-15T07:38:38.179Z,46.40
2023-05-15T07:41:34.566Z,46.40
2023-05-15T07:44:28.968Z,46.40
2023-05-15T07:47:23.487Z,46.50
2023-05-15T07:50:18.792Z,46.40
2023-05-15T07:53:13.004Z,46.70
2023-05-15T07:56:07.330Z,47.30
2023-05-15T07:59:01.566Z,47.90
2023-05-15T08:01:56.006Z,48.20
2023-05-15T08:04:50.403Z,48.40
2023-05-15T08:07:44.687Z,48.70
2023-05-15T08:10:38.938Z,49.10
2023-05-15T08:13:33.550Z,49.00
2023-05-15T08:16:27.855Z,49.50
2023-05-15T08:19:23.247Z,49.80
2023-05-15T08:22:17.808Z,50.00
2023-05-15T08:25:12.131Z,50.30
2023-05-15T08:28:07.147Z,50.50
2023-05-15T08:31:01.488Z,50.90
2023-05-15T08:33:55.682Z,51.20
2023-05-15T08:36:49.940Z,51.50
2023-05-15T08:39:44.238Z,51.80
2023-05-15T08:42:55.352Z,52.10
2023-05-15T08:45:50.815Z,52.40
2023-05-15T08:48:45.925Z,52.70
2023-05-15T08:51:40.985Z,53.30
2023-05-15T08:54:36.302Z,53.60
2023-05-15T08:57:31.257Z,53.80
2023-05-15T09:00:25.489Z,54.20
2023-05-15T09:03:21.104Z,54.40
2023-05-15T09:06:16.305Z,54.80
2023-05-15T09:09:14.695Z,55.00
2023-05-15T09:12:15.867Z,55.40
2023-05-15T09:15:14.216Z,55.70
2023-05-15T09:18:09.368Z,55.90
2023-05-15T09:21:28.814Z,56.30
2023-05-15T09:24:25.718Z,56.50
2023-05-15T09:27:20.605Z,56.60
2023-05-15T09:30:15.789Z,56.80
2023-05-15T09:33:11.481Z,56.90
2023-05-15T09:36:07.728Z,57.20
2023-05-15T09:39:02.960Z,57.30
2023-05-15T09:42:14.298Z,57.40
2023-05-15T09:45:18.828Z,57.40
2023-05-15T09:48:13.415Z,57.60
2023-05-15T09:51:15.875Z,58.10
2023-05-15T09:54:17.683Z,58.40
2023-05-15T09:57:14.105Z,58.50
2023-05-15T10:00:13.903Z,58.60
2023-05-15T10:03:10.301Z,58.80
2023-05-15T10:06:05.826Z,59.00
2023-05-15T10:09:00.188Z,59.20
2023-05-15T10:11:55.213Z,59.40
2023-05-15T10:14:51.761Z,59.70
2023-05-15T10:17:48.457Z,59.70
2023-05-15T10:20:43.099Z,59.80
2023-05-15T10:23:42.497Z,60.30
2023-05-15T10:26:42.364Z,60.50
2023-05-15T10:29:37.650Z,60.80
2023-05-15T10:32:32.730Z,61.10
2023-05-15T10:35:28.225Z,61.30
2023-05-15T10:38:23.564Z,61.60
2023-05-15T10:41:22.471Z,62.00
2023-05-15T10:44:17.353Z,62.10
2023-05-15T10:47:12.127Z,62.20
2023-05-15T10:50:07.870Z,62.30
2023-05-15T10:53:02.549Z,62.70
2023-05-15T10:55:56.989Z,63.00
2023-05-15T10:58:52.266Z,63.10
2023-05-15T11:01:46.605Z,63.40
2023-05-15T11:04:41.348Z,63.80
2023-05-15T11:07:36.121Z,64.00
2023-05-15T11:10:30.370Z,64.30
2023-05-15T11:13:24.755Z,64.50
2023-05-15T11:17:01.785Z,64.80
2023-05-15T11:19:59.729Z,65.10
2023-05-15T11:23:02.705Z,65.10
2023-05-15T11:25:59.044Z,65.70
2023-05-15T11:28:54.175Z,65.90
2023-05-15T11:31:48.407Z,65.70
2023-05-15T11:34:44.154Z,65.90
2023-05-15T11:37:59.810Z,65.90
2023-05-15T11:41:04.600Z,66.00
2023-05-15T11:43:59.014Z,66.40
2023-05-15T11:46:54.662Z,66.50
2023-05-15T11:49:50.849Z,66.80
2023-05-15T11:52:45.960Z,66.90
2023-05-15T11:55:42.385Z,67.10
2023-05-15T11:58:36.677Z,67.20
2023-05-15T12:01:42.179Z,67.60
2023-05-15T12:04:36.718Z,67.60
2023-05-15T12:07:31.153Z,67.80
2023-05-15T12:10:25.840Z,67.80
2023-05-15T12:13:20.933Z,67.70
2023-05-15T12:16:15.324Z,68.00
2023-05-15T12:19:09.581Z,68.20
2023-05-15T12:22:06.008Z,68.30
2023-05-15T12:25:01.052Z,68.30
2023-05-15T12:27:55.440Z,68.40
2023-05-15T12:30:50.222Z,68.50
2023-05-15T12:33:45.087Z,68.50
2023-05-15T12:36:39.308Z,68.80
2023-05-15T12:39:33.731Z,68.80
2023-05-15T12:42:28.428Z,69.10
2023-05-15T12:45:24.057Z,69.20
2023-05-15T12:48:18.202Z,69.30
2023-05-15T12:51:12.418Z,69.20
2023-05-15T12:54:06.817Z,69.40
2023-05-15T12:57:02.176Z,69.50
2023-05-15T12:59:56.540Z,69.80
2023-05-15T13:02:58.482Z,69.90
2023-05-15T13:05:53.990Z,70.00
2023-05-15T13:08:49.213Z,70.30
2023-05-15T13:11:47.093Z,70.20
2023-05-15T13:14:44.366Z,70.20
2023-05-15T13:17:41.297Z,70.00
2023-05-15T13:20:37.699Z,70.20
2023-05-15T13:23:32.007Z,70.50
2023-05-15T13:26:26.193Z,70.50
2023-05-15T13:29:20.421Z,70.70
2023-05-15T13:32:14.949Z,70.90
2023-05-15T13:35:09.801Z,71.00
2023-05-15T13:38:04.088Z,71.10
2023-05-15T13:40:58.374Z,71.10
2023-05-15T13:43:52.774Z,71.00
2023-05-15T13:46:47.866Z,71.10
2023-05-15T13:49:42.222Z,71.40
2023-05-15T13:52:36.571Z,71.30
2023-05-15T13:55:30.895Z,71.60
2023-05-15T13:58:27.658Z,71.40
2023-05-15T14:01:21.890Z,71.60
2023-05-15T14:04:16.214Z,71.80
2023-05-15T14:07:10.476Z,72.00
2023-05-15T14:10:05.178Z,72.20
2023-05-15T14:13:00.796Z,72.40
2023-05-15T14:15:56.090Z,72.40
2023-05-15T14:18:50.363Z,72.50
2023-05-15T14:21:44.604Z,72.60
2023-05-15T14:24:39.273Z,73.00
2023-05-15T14:27:34.007Z,72.90
2023-05-15T14:30:28.257Z,73.10
2023-05-15T14:33:22.600Z,73.40
2023-05-15T14:36:17.232Z,73.40
2023-05-15T14:39:11.475Z,73.40
2023-05-15T14:42:06.347Z,73.70
2023-05-15T14:45:00.684Z,73.80
2023-05-15T14:47:54.986Z,74.00
2023-05-15T14:50:49.282Z,74.30
2023-05-15T14:53:44.164Z,74.60
2023-05-15T14:56:38.320Z,74.80
2023-05-15T14:59:34.505Z,75.00
2023-05-15T15:02:28.990Z,75.30
2023-05-15T15:05:23.511Z,75.60
2023-05-15T15:08:17.792Z,75.90
2023-05-15T15:11:12.076Z,76.10
2023-05-15T15:14:06.359Z,76.20
2023-05-15T15:17:00.631Z,76.40
2023-05-15T15:19:54.947Z,76.70
2023-05-15T15:22:49.982Z,76.50
2023-05-15T15:25:44.324Z,76.90
2023-05-15T15:28:38.728Z,76.90
2023-05-15T15:31:33.517Z,76.70
2023-05-15T15:34:28.131Z,76.60
2023-05-15T15:37:22.407Z,76.40
2023-05-15T15:40:19.366Z,76.60
2023-05-15T15:43:13.714Z,76.90
2023-05-15T15:46:08.299Z,77.20
2023-05-15T15:49:04.424Z,77.10
2023-05-15T15:51:59.818Z,77.20
2023-05-15T15:54:54.301Z,77.10
2023-05-15T15:57:48.465Z,77.40
2023-05-15T16:00:42.944Z,77.60
2023-05-15T16:03:37.862Z,77.50
2023-05-15T16:06:32.689Z,77.80
2023-05-15T16:09:27.610Z,77.40
2023-05-15T16:12:21.813Z,77.90
2023-05-15T16:15:23.470Z,78.00
2023-05-15T16:18:18.363Z,78.20
2023-05-15T16:21:12.777Z,78.40
2023-05-15T16:24:07.231Z,78.70
2023-05-15T16:27:01.493Z,78.90
2023-05-15T16:29:57.999Z,79.30
2023-05-15T16:32:53.727Z,79.70
2023-05-15T16:35:49.139Z,79.50
2023-05-15T16:38:44.216Z,79.80
2023-05-15T16:41:39.298Z,80.00
2023-05-15T16:44:35.195Z,80.00
2023-05-15T16:47:30.650Z,80.00
2023-05-15T16:50:26.673Z,80.50
2023-05-15T16:53:22.877Z,80.50
2023-05-15T16:56:19.105Z,80.70
2023-05-15T16:59:14.681Z,81.00
2023-05-15T17:02:09.710Z,81.30
2023-05-15T17:05:05.165Z,81.20
2023-05-15T17:08:00.118Z,81.70
2023-05-15T17:10:55.039Z,81.60
2023-05-15T17:13:49.853Z,81.60
2023-05-15T17:16:45.114Z,81.90
2023-05-15T17:19:40.711Z,82.00
2023-05-15T17:22:36.385Z,82.20
2023-05-15T17:25:31.897Z,82.60
2023-05-15T17:28:26.915Z,82.50
2023-05-15T17:31:22.842Z,82.80
2023-05-15T17:34:18.126Z,82.50
2023-05-15T17:37:13.551Z,82.70
2023-05-15T17:40:09.052Z,82.70
2023-05-15T17:43:04.114Z,83.60
2023-05-15T17:46:01.306Z,83.10
2023-05-15T17:48:55.926Z,83.10
2023-05-15T17:51:50.884Z,83.10
2023-05-15T17:54:45.657Z,83.00
2023-05-15T17:57:40.474Z,83.00
2023-05-15T18:00:35.337Z,83.00
2023-05-15T18:03:30.463Z,82.80
2023-05-15T18:06:25.369Z,83.10
2023-05-15T18:09:24.026Z,83.20
2023-05-15T18:12:19.367Z,83.20
2023-05-15T18:15:14.248Z,83.10
2023-05-15T18:18:09.102Z,83.20
2023-05-15T18:21:04.425Z,82.90
2023-05-15T18:23:59.324Z,83.30
2023-05-15T18:26:54.026Z,83.40
2023-05-15T18:29:48.848Z,83.20
2023-05-15T18:32:43.678Z,83.20
2023-05-15T18:35:38.710Z,83.70
2023-05-15T18:38:34.056Z,83.50
2023-05-15T18:41:28.833Z,83.60
2023-05-15T18:44:23.581Z,84.20
2023-05-15T18:47:18.737Z,84.20
2023-05-15T18:50:15.073Z,84.10
2023-05-15T18:53:09.860Z,83.90
2023-05-15T18:56:04.555Z,84.00
2023-05-15T18:58:59.474Z,84.30
2023-05-15T19:01:57.188Z,84.50
2023-05-15T19:04:52.178Z,84.50
2023-05-15T19:07:46.915Z,84.80
2023-05-15T19:10:41.680Z,84.90
2023-05-15T19:13:36.421Z,84.90
2023-05-15T19:16:31.389Z,84.80
2023-05-15T19:19:26.298Z,85.00
2023-05-15T19:22:22.387Z,84.90
2023-05-15T19:25:17.108Z,85.30
2023-05-15T19:28:11.912Z,85.80
2023-05-15T19:31:11.724Z,85.80
2023-05-15T19:34:12.350Z,85.60
2023-05-15T19:37:07.316Z,85.70
2023-05-15T19:40:02.222Z,86.20
2023-05-15T19:42:57.049Z,86.20
2023-05-15T19:45:51.877Z,86.40
2023-05-15T19:48:46.717Z,86.80
2023-05-15T19:51:44.418Z,87.20
2023-05-15T19:54:39.215Z,87.70
2023-05-15T19:57:34.124Z,87.90
2023-05-15T20:00:28.996Z,88.40
2023-05-15T20:03:24.053Z,88.60
2023-05-15T20:06:18.995Z,88.60
2023-05-15T20:09:13.748Z,88.60
2023-05-15T20:12:08.778Z,88.80
2023-05-15T20:15:03.851Z,89.10
2023-05-15T20:17:58.922Z,89.20
2023-05-15T20:20:54.454Z,89.30
2023-05-15T20:23:50.523Z,89.80
2023-05-15T20:26:45.497Z,89.80
2023-05-15T20:29:41.268Z,89.90
2023-05-15T20:32:36.485Z,89.70
2023-05-15T20:35:31.429Z,90.00
2023-05-15T20:38:26.942Z,90.20
2023-05-15T20:41:23.158Z,90.00
2023-05-15T20:44:18.282Z,90.20
2023-05-15T20:47:13.053Z,89.90
2023-05-15T20:50:08.439Z,90.10
2023-05-15T20:53:03.264Z,89.90
2023-05-15T20:55:58.111Z,90.00
2023-05-15T20:58:53.356Z,90.00
2023-05-15T21:01:48.298Z,90.10
2023-05-15T21:04:43.308Z,90.20
2023-05-15T21:07:38.866Z,90.20
2023-05-15T21:10:33.704Z,90.20
2023-05-15T21:13:29.200Z,90.30
2023-05-15T21:16:24.216Z,90.50
2023-05-15T21:19:19.146Z,90.50
2023-05-15T21:22:14.094Z,90.60
2023-05-15T21:25:09.410Z,90.60
2023-05-15T21:28:04.292Z,90.70
2023-05-15T21:30:59.206Z,90.80
2023-05-15T21:33:54.485Z,90.90
2023-05-15T21:36:49.266Z,91.00
2023-05-15T21:39:43.973Z,91.20
2023-05-15T21:42:38.817Z,91.00
2023-05-15T21:45:33.596Z,91.10
2023-05-15T21:48:28.467Z,91.20
2023-05-15T21:51:23.405Z,91.20
2023-05-15T21:54:17.848Z,91.20
2023-05-15T21:57:12.489Z,91.50
2023-05-15T22:00:08.755Z,91.30
2023-05-15T22:03:03.125Z,91.60
2023-05-15T22:05:57.736Z,91.40
2023-05-15T22:08:52.149Z,91.60
2023-05-15T22:11:46.373Z,91.70
2023-05-15T22:14:54.666Z,91.70
2023-05-15T22:17:52.900Z,91.70
2023-05-15T22:20:49.980Z,91.90
2023-05-15T22:23:44.482Z,92.10
2023-05-15T22:26:38.656Z,92.00
2023-05-15T22:29:32.992Z,92.40
2023-05-15T22:32:27.649Z,92.70
2023-05-15T22:35:21.972Z,93.10
2023-05-15T22:38:16.975Z,93.20
2023-05-15T22:41:11.231Z,93.50
2023-05-15T22:44:06.158Z,93.70
2023-05-15T22:47:00.366Z,93.90
2023-05-15T22:49:54.566Z,94.00
2023-05-15T22:52:48.776Z,94.40
2023-05-15T22:55:43.542Z,94.70
2023-05-15T22:58:37.839Z,94.80
2023-05-15T23:01:33.362Z,95.30
2023-05-15T23:04:27.584Z,95.50
2023-05-15T23:07:21.782Z,95.40
2023-05-15T23:10:16.035Z,95.40
2023-05-15T23:13:10.396Z,95.50
2023-05-15T23:16:04.681Z,95.50
2023-05-15T23:18:59.294Z,95.70
2023-05-15T23:21:53.764Z,95.70
2023-05-15T23:24:48.030Z,95.80
2023-05-15T23:27:42.215Z,96.10
2023-05-15T23:30:36.617Z,96.00
2023-05-15T23:33:30.818Z,96.20
2023-05-15T23:36:25.103Z,96.10
2023-05-15T23:39:19.357Z,96.30
2023-05-15T23:42:13.669Z,96.60
2023-05-15T23:45:08.652Z,96.80
2023-05-15T23:48:02.920Z,96.80
2023-05-15T23:50:57.335Z,97.30
2023-05-15T23:53:51.792Z,97.20
2023-05-15T23:56:46.526Z,97.60
2023-05-15T23:59:40.763Z,97.80
